sensor_id;sensor_type;location;lat;lon;timestamp;P1;durP1;ratioP1;P2;durP2;ratioP2
1082;SDS011;530;51.448;7.238;2023-01-26T00:01:07;61.53;;;32.07;;
1082;SDS011;530;51.448;7.238;2023-01-26T00:03:34;65.17;;;32.40;;
1082;SDS011;530;51.448;7.238;2023-01-26T00:06:06;63.70;;;31.30;;
1082;SDS011;530;51.448;7.238;2023-01-26T00:08:37;67.63;;;33.43;;
1082;SDS011;530;51.448;7.238;2023-01-26T00:11:08;65.20;;;32.00;;
1082;SDS011;530;51.448;7.238;2023-01-26T00:13:35;63.17;;;30.50;;
1082;SDS011;530;51.448;7.238;2023-01-26T00:16:01;59.20;;;29.97;;
1082;SDS011;530;51.448;7.238;2023-01-26T00:18:28;62.40;;;29.80;;
1082;SDS011;530;51.448;7.238;2023-01-26T00:20:55;58.97;;;30.73;;
1082;SDS011;530;51.448;7.238;2023-01-26T00:23:22;63.33;;;30.30;;
1082;SDS011;530;51.448;7.238;2023-01-26T00:25:48;62.73;;;30.60;;
1082;SDS011;530;51.448;7.238;2023-01-26T00:28:13;57.67;;;28.70;;
1082;SDS011;530;51.448;7.238;2023-01-26T00:30:39;56.83;;;28.80;;
1082;SDS011;530;51.448;7.238;2023-01-26T00:33:04;57.00;;;29.53;;
1082;SDS011;530;51.448;7.238;2023-01-26T00:35:30;57.57;;;29.83;;
1082;SDS011;530;51.448;7.238;2023-01-26T00:37:56;57.37;;;26.97;;
1082;SDS011;530;51.448;7.238;2023-01-26T00:40:21;54.10;;;25.77;;
1082;SDS011;530;51.448;7.238;2023-01-26T00:42:47;51.50;;;27.80;;
1082;SDS011;530;51.448;7.238;2023-01-26T00:45:13;52.47;;;26.93;;
1082;SDS011;530;51.448;7.238;2023-01-26T00:47:38;55.60;;;26.27;;
1082;SDS011;530;51.448;7.238;2023-01-26T00:50:04;52.00;;;25.73;;
1082;SDS011;530;51.448;7.238;2023-01-26T00:52:30;50.57;;;24.50;;
1082;SDS011;530;51.448;7.238;2023-01-26T00:54:56;49.80;;;27.13;;
1082;SDS011;530;51.448;7.238;2023-01-26T00:57:23;45.67;;;23.60;;
1082;SDS011;530;51.448;7.238;2023-01-26T00:59:48;51.60;;;25.47;;
1082;SDS011;530;51.448;7.238;2023-01-26T01:02:14;54.27;;;26.77;;
1082;SDS011;530;51.448;7.238;2023-01-26T01:04:40;55.37;;;26.40;;
1082;SDS011;530;51.448;7.238;2023-01-26T01:07:05;63.17;;;29.80;;
1082;SDS011;530;51.448;7.238;2023-01-26T01:09:31;54.53;;;26.77;;
1082;SDS011;530;51.448;7.238;2023-01-26T01:11:57;59.20;;;27.20;;
1082;SDS011;530;51.448;7.238;2023-01-26T01:14:22;51.73;;;26.10;;
1082;SDS011;530;51.448;7.238;2023-01-26T01:16:48;57.57;;;26.67;;
1082;SDS011;530;51.448;7.238;2023-01-26T01:19:14;54.50;;;26.60;;
1082;SDS011;530;51.448;7.238;2023-01-26T01:21:41;46.63;;;24.07;;
1082;SDS011;530;51.448;7.238;2023-01-26T01:24:08;54.03;;;24.87;;
1082;SDS011;530;51.448;7.238;2023-01-26T01:26:33;67.83;;;29.17;;
1082;SDS011;530;51.448;7.238;2023-01-26T01:28:59;53.53;;;25.77;;
1082;SDS011;530;51.448;7.238;2023-01-26T01:31:25;55.17;;;25.87;;
1082;SDS011;530;51.448;7.238;2023-01-26T01:33:53;49.03;;;24.10;;
1082;SDS011;530;51.448;7.238;2023-01-26T01:36:19;52.07;;;26.97;;
1082;SDS011;530;51.448;7.238;2023-01-26T01:38:45;51.90;;;25.93;;
1082;SDS011;530;51.448;7.238;2023-01-26T01:41:11;60.97;;;26.13;;
1082;SDS011;530;51.448;7.238;2023-01-26T01:43:39;52.03;;;24.50;;
1082;SDS011;530;51.448;7.238;2023-01-26T01:48:55;51.70;;;24.70;;
1082;SDS011;530;51.448;7.238;2023-01-26T01:51:40;53.57;;;27.57;;
1082;SDS011;530;51.448;7.238;2023-01-26T01:54:58;50.33;;;23.20;;
1082;SDS011;530;51.448;7.238;2023-01-26T01:57:40;59.40;;;26.00;;
1082;SDS011;530;51.448;7.238;2023-01-26T02:00:16;58.80;;;27.30;;
1082;SDS011;530;51.448;7.238;2023-01-26T02:02:45;52.60;;;26.90;;
1082;SDS011;530;51.448;7.238;2023-01-26T02:08:18;55.53;;;25.53;;
1082;SDS011;530;51.448;7.238;2023-01-26T02:10:48;51.10;;;24.20;;
1082;SDS011;530;51.448;7.238;2023-01-26T02:13:16;55.67;;;25.83;;
1082;SDS011;530;51.448;7.238;2023-01-26T02:15:43;52.33;;;25.13;;
1082;SDS011;530;51.448;7.238;2023-01-26T02:18:09;58.27;;;26.60;;
1082;SDS011;530;51.448;7.238;2023-01-26T02:23:18;49.63;;;23.17;;
1082;SDS011;530;51.448;7.238;2023-01-26T02:26:07;55.67;;;26.17;;
1082;SDS011;530;51.448;7.238;2023-01-26T02:28:38;55.00;;;25.33;;
1082;SDS011;530;51.448;7.238;2023-01-26T02:31:05;54.07;;;25.53;;
1082;SDS011;530;51.448;7.238;2023-01-26T02:33:32;52.03;;;24.40;;
1082;SDS011;530;51.448;7.238;2023-01-26T02:35:58;55.77;;;25.00;;
1082;SDS011;530;51.448;7.238;2023-01-26T02:38:24;54.97;;;25.93;;
1082;SDS011;530;51.448;7.238;2023-01-26T02:40:55;50.87;;;24.80;;
1082;SDS011;530;51.448;7.238;2023-01-26T02:43:29;56.47;;;24.23;;
1082;SDS011;530;51.448;7.238;2023-01-26T02:45:56;55.30;;;25.87;;
1082;SDS011;530;51.448;7.238;2023-01-26T02:48:22;54.30;;;25.40;;
1082;SDS011;530;51.448;7.238;2023-01-26T02:51:06;51.07;;;23.93;;
1082;SDS011;530;51.448;7.238;2023-01-26T02:53:32;55.07;;;23.63;;
1082;SDS011;530;51.448;7.238;2023-01-26T02:55:57;58.27;;;25.10;;
1082;SDS011;530;51.448;7.238;2023-01-26T02:58:23;53.17;;;24.20;;
1082;SDS011;530;51.448;7.238;2023-01-26T03:00:49;60.70;;;27.10;;
1082;SDS011;530;51.448;7.238;2023-01-26T03:03:19;55.07;;;27.10;;
1082;SDS011;530;51.448;7.238;2023-01-26T03:06:05;59.10;;;26.53;;
1082;SDS011;530;51.448;7.238;2023-01-26T03:08:35;54.63;;;24.20;;
1082;SDS011;530;51.448;7.238;2023-01-26T03:11:01;52.90;;;26.00;;
1082;SDS011;530;51.448;7.238;2023-01-26T03:13:28;56.97;;;25.03;;
1082;SDS011;530;51.448;7.238;2023-01-26T03:15:54;49.77;;;23.90;;
1082;SDS011;530;51.448;7.238;2023-01-26T03:18:20;55.03;;;23.17;;
1082;SDS011;530;51.448;7.238;2023-01-26T03:21:06;57.93;;;25.33;;
1082;SDS011;530;51.448;7.238;2023-01-26T03:23:59;50.43;;;24.80;;
1082;SDS011;530;51.448;7.238;2023-01-26T03:26:44;58.70;;;26.10;;
1082;SDS011;530;51.448;7.238;2023-01-26T03:29:29;58.63;;;26.30;;
1082;SDS011;530;51.448;7.238;2023-01-26T03:31:55;60.63;;;25.27;;
1082;SDS011;530;51.448;7.238;2023-01-26T03:34:21;56.50;;;27.63;;
1082;SDS011;530;51.448;7.238;2023-01-26T03:36:47;62.03;;;26.97;;
1082;SDS011;530;51.448;7.238;2023-01-26T03:39:13;61.20;;;25.53;;
1082;SDS011;530;51.448;7.238;2023-01-26T03:41:59;49.47;;;24.77;;
1082;SDS011;530;51.448;7.238;2023-01-26T03:44:43;49.83;;;23.90;;
1082;SDS011;530;51.448;7.238;2023-01-26T03:47:30;50.80;;;24.27;;
1082;SDS011;530;51.448;7.238;2023-01-26T03:50:14;48.30;;;24.20;;
1082;SDS011;530;51.448;7.238;2023-01-26T03:52:59;49.77;;;23.50;;
1082;SDS011;530;51.448;7.238;2023-01-26T03:55:43;60.83;;;26.90;;
1082;SDS011;530;51.448;7.238;2023-01-26T03:58:27;52.60;;;25.30;;
1082;SDS011;530;51.448;7.238;2023-01-26T04:00:54;59.43;;;27.73;;
1082;SDS011;530;51.448;7.238;2023-01-26T04:03:21;65.80;;;28.07;;
1082;SDS011;530;51.448;7.238;2023-01-26T04:06:05;60.97;;;28.27;;
1082;SDS011;530;51.448;7.238;2023-01-26T04:08:49;64.10;;;26.93;;
1082;SDS011;530;51.448;7.238;2023-01-26T04:11:15;62.23;;;30.80;;
1082;SDS011;530;51.448;7.238;2023-01-26T04:13:41;59.73;;;26.13;;
1082;SDS011;530;51.448;7.238;2023-01-26T04:16:25;57.83;;;26.70;;
1082;SDS011;530;51.448;7.238;2023-01-26T04:19:09;61.17;;;26.97;;
1082;SDS011;530;51.448;7.238;2023-01-26T04:21:53;59.00;;;26.80;;
1082;SDS011;530;51.448;7.238;2023-01-26T04:24:19;70.20;;;30.20;;
1082;SDS011;530;51.448;7.238;2023-01-26T04:26:46;62.80;;;28.40;;
1082;SDS011;530;51.448;7.238;2023-01-26T04:29:13;59.97;;;28.40;;
1082;SDS011;530;51.448;7.238;2023-01-26T04:31:40;63.77;;;29.17;;
1082;SDS011;530;51.448;7.238;2023-01-26T04:34:06;63.47;;;29.07;;
1082;SDS011;530;51.448;7.238;2023-01-26T04:36:35;55.70;;;29.57;;
1082;SDS011;530;51.448;7.238;2023-01-26T04:39:01;63.93;;;29.20;;
1082;SDS011;530;51.448;7.238;2023-01-26T04:41:29;58.93;;;28.83;;
1082;SDS011;530;51.448;7.238;2023-01-26T04:43:56;62.30;;;29.57;;
1082;SDS011;530;51.448;7.238;2023-01-26T04:46:22;58.33;;;27.73;;
1082;SDS011;530;51.448;7.238;2023-01-26T04:48:49;63.53;;;28.37;;
1082;SDS011;530;51.448;7.238;2023-01-26T04:51:15;64.80;;;29.90;;
1082;SDS011;530;51.448;7.238;2023-01-26T04:53:44;62.03;;;29.43;;
1082;SDS011;530;51.448;7.238;2023-01-26T04:56:14;71.77;;;30.67;;
1082;SDS011;530;51.448;7.238;2023-01-26T04:58:57;65.90;;;28.17;;
1082;SDS011;530;51.448;7.238;2023-01-26T05:01:24;73.00;;;32.00;;
1082;SDS011;530;51.448;7.238;2023-01-26T05:03:49;60.17;;;29.00;;
1082;SDS011;530;51.448;7.238;2023-01-26T05:06:15;63.93;;;29.10;;
1082;SDS011;530;51.448;7.238;2023-01-26T05:08:41;61.53;;;28.27;;
1082;SDS011;530;51.448;7.238;2023-01-26T05:11:07;61.63;;;30.20;;
1082;SDS011;530;51.448;7.238;2023-01-26T05:13:32;63.37;;;29.77;;
1082;SDS011;530;51.448;7.238;2023-01-26T05:16:00;61.93;;;28.63;;
1082;SDS011;530;51.448;7.238;2023-01-26T05:18:26;64.40;;;29.50;;
1082;SDS011;530;51.448;7.238;2023-01-26T05:20:52;60.63;;;26.90;;
1082;SDS011;530;51.448;7.238;2023-01-26T05:23:18;64.63;;;28.80;;
1082;SDS011;530;51.448;7.238;2023-01-26T05:25:44;59.40;;;28.70;;
1082;SDS011;530;51.448;7.238;2023-01-26T05:28:10;54.93;;;27.00;;
1082;SDS011;530;51.448;7.238;2023-01-26T05:30:35;66.17;;;27.67;;
1082;SDS011;530;51.448;7.238;2023-01-26T05:33:02;64.40;;;30.00;;
1082;SDS011;530;51.448;7.238;2023-01-26T05:35:28;72.50;;;28.87;;
1082;SDS011;530;51.448;7.238;2023-01-26T05:37:54;56.47;;;27.43;;
1082;SDS011;530;51.448;7.238;2023-01-26T05:40:20;67.87;;;29.77;;
1082;SDS011;530;51.448;7.238;2023-01-26T05:42:46;61.57;;;28.70;;
1082;SDS011;530;51.448;7.238;2023-01-26T05:45:12;61.23;;;29.17;;
1082;SDS011;530;51.448;7.238;2023-01-26T05:47:38;73.13;;;29.10;;
1082;SDS011;530;51.448;7.238;2023-01-26T05:50:04;59.00;;;29.87;;
1082;SDS011;530;51.448;7.238;2023-01-26T05:52:30;63.63;;;28.87;;
1082;SDS011;530;51.448;7.238;2023-01-26T05:54:56;74.27;;;32.37;;
1082;SDS011;530;51.448;7.238;2023-01-26T05:57:22;59.53;;;28.90;;
1082;SDS011;530;51.448;7.238;2023-01-26T05:59:48;68.60;;;30.43;;
1082;SDS011;530;51.448;7.238;2023-01-26T06:02:13;66.83;;;29.17;;
1082;SDS011;530;51.448;7.238;2023-01-26T06:04:39;62.93;;;30.00;;
1082;SDS011;530;51.448;7.238;2023-01-26T06:07:05;65.87;;;28.63;;
1082;SDS011;530;51.448;7.238;2023-01-26T06:09:30;57.67;;;26.40;;
1082;SDS011;530;51.448;7.238;2023-01-26T06:11:56;64.33;;;28.73;;
1082;SDS011;530;51.448;7.238;2023-01-26T06:14:22;53.50;;;25.17;;
1082;SDS011;530;51.448;7.238;2023-01-26T06:16:48;53.63;;;24.80;;
1082;SDS011;530;51.448;7.238;2023-01-26T06:19:13;54.47;;;25.00;;
1082;SDS011;530;51.448;7.238;2023-01-26T06:21:39;54.63;;;24.67;;
1082;SDS011;530;51.448;7.238;2023-01-26T06:24:05;47.83;;;23.50;;
1082;SDS011;530;51.448;7.238;2023-01-26T06:26:31;46.37;;;21.67;;
1082;SDS011;530;51.448;7.238;2023-01-26T06:28:56;48.10;;;23.70;;
1082;SDS011;530;51.448;7.238;2023-01-26T06:31:22;56.57;;;22.63;;
1082;SDS011;530;51.448;7.238;2023-01-26T06:33:48;46.73;;;21.90;;
1082;SDS011;530;51.448;7.238;2023-01-26T06:36:15;42.60;;;21.50;;
1082;SDS011;530;51.448;7.238;2023-01-26T06:38:44;47.87;;;24.00;;
1082;SDS011;530;51.448;7.238;2023-01-26T06:41:11;49.73;;;23.43;;
1082;SDS011;530;51.448;7.238;2023-01-26T06:43:38;44.50;;;22.07;;
1082;SDS011;530;51.448;7.238;2023-01-26T06:46:04;48.90;;;23.30;;
1082;SDS011;530;51.448;7.238;2023-01-26T06:48:31;44.13;;;20.50;;
1082;SDS011;530;51.448;7.238;2023-01-26T06:53:41;44.43;;;21.13;;
1082;SDS011;530;51.448;7.238;2023-01-26T06:56:11;38.20;;;19.73;;
1082;SDS011;530;51.448;7.238;2023-01-26T06:58:37;40.60;;;19.93;;
1082;SDS011;530;51.448;7.238;2023-01-26T07:01:02;42.07;;;20.50;;
1082;SDS011;530;51.448;7.238;2023-01-26T07:03:28;38.57;;;19.00;;
1082;SDS011;530;51.448;7.238;2023-01-26T07:05:54;38.27;;;19.97;;
1082;SDS011;530;51.448;7.238;2023-01-26T07:08:20;39.53;;;20.00;;
1082;SDS011;530;51.448;7.238;2023-01-26T07:10:46;42.60;;;20.20;;
1082;SDS011;530;51.448;7.238;2023-01-26T07:13:13;34.67;;;18.70;;
1082;SDS011;530;51.448;7.238;2023-01-26T07:15:38;40.33;;;17.53;;
1082;SDS011;530;51.448;7.238;2023-01-26T07:18:04;45.50;;;19.83;;
1082;SDS011;530;51.448;7.238;2023-01-26T07:20:30;38.60;;;19.00;;
1082;SDS011;530;51.448;7.238;2023-01-26T07:22:55;42.20;;;18.87;;
1082;SDS011;530;51.448;7.238;2023-01-26T07:25:23;34.33;;;19.10;;
1082;SDS011;530;51.448;7.238;2023-01-26T07:27:53;34.83;;;17.50;;
1082;SDS011;530;51.448;7.238;2023-01-26T07:30:23;35.83;;;16.63;;
1082;SDS011;530;51.448;7.238;2023-01-26T07:32:49;34.87;;;18.10;;
1082;SDS011;530;51.448;7.238;2023-01-26T07:35:15;37.50;;;19.10;;
1082;SDS011;530;51.448;7.238;2023-01-26T07:37:40;37.30;;;19.27;;
1082;SDS011;530;51.448;7.238;2023-01-26T07:40:06;37.73;;;19.03;;
1082;SDS011;530;51.448;7.238;2023-01-26T07:42:32;37.63;;;18.07;;
1082;SDS011;530;51.448;7.238;2023-01-26T07:44:58;36.10;;;16.87;;
1082;SDS011;530;51.448;7.238;2023-01-26T07:47:24;35.67;;;17.60;;
1082;SDS011;530;51.448;7.238;2023-01-26T07:49:49;38.80;;;20.53;;
1082;SDS011;530;51.448;7.238;2023-01-26T07:52:15;35.80;;;18.40;;
1082;SDS011;530;51.448;7.238;2023-01-26T07:54:41;41.10;;;18.80;;
1082;SDS011;530;51.448;7.238;2023-01-26T07:57:06;38.60;;;18.57;;
1082;SDS011;530;51.448;7.238;2023-01-26T07:59:32;37.50;;;18.33;;
1082;SDS011;530;51.448;7.238;2023-01-26T08:01:58;40.47;;;19.50;;
1082;SDS011;530;51.448;7.238;2023-01-26T08:04:24;37.40;;;18.93;;
1082;SDS011;530;51.448;7.238;2023-01-26T08:06:50;41.93;;;21.17;;
1082;SDS011;530;51.448;7.238;2023-01-26T08:09:16;40.03;;;21.33;;
1082;SDS011;530;51.448;7.238;2023-01-26T08:11:42;41.97;;;21.33;;
1082;SDS011;530;51.448;7.238;2023-01-26T08:14:07;37.63;;;18.63;;
1082;SDS011;530;51.448;7.238;2023-01-26T08:16:33;41.30;;;19.27;;
1082;SDS011;530;51.448;7.238;2023-01-26T08:18:59;43.07;;;21.90;;
1082;SDS011;530;51.448;7.238;2023-01-26T08:21:24;40.47;;;21.27;;
1082;SDS011;530;51.448;7.238;2023-01-26T08:23:50;45.23;;;19.70;;
1082;SDS011;530;51.448;7.238;2023-01-26T08:26:17;43.90;;;20.03;;
1082;SDS011;530;51.448;7.238;2023-01-26T08:29:09;35.30;;;19.33;;
1082;SDS011;530;51.448;7.238;2023-01-26T08:31:35;42.67;;;21.27;;
1082;SDS011;530;51.448;7.238;2023-01-26T08:34:01;37.23;;;18.90;;
1082;SDS011;530;51.448;7.238;2023-01-26T08:36:28;46.07;;;21.90;;
1082;SDS011;530;51.448;7.238;2023-01-26T08:38:54;42.93;;;19.90;;
1082;SDS011;530;51.448;7.238;2023-01-26T08:41:20;40.43;;;20.70;;
1082;SDS011;530;51.448;7.238;2023-01-26T08:43:46;39.77;;;19.97;;
1082;SDS011;530;51.448;7.238;2023-01-26T08:46:12;40.00;;;19.83;;
1082;SDS011;530;51.448;7.238;2023-01-26T08:48:39;42.13;;;20.63;;
1082;SDS011;530;51.448;7.238;2023-01-26T08:51:05;39.80;;;21.63;;
1082;SDS011;530;51.448;7.238;2023-01-26T08:53:31;42.60;;;19.63;;
1082;SDS011;530;51.448;7.238;2023-01-26T08:56:02;39.37;;;20.67;;
1082;SDS011;530;51.448;7.238;2023-01-26T08:58:29;38.57;;;20.70;;
1082;SDS011;530;51.448;7.238;2023-01-26T09:00:56;45.00;;;20.20;;
1082;SDS011;530;51.448;7.238;2023-01-26T09:03:22;45.60;;;21.70;;
1082;SDS011;530;51.448;7.238;2023-01-26T09:05:48;43.07;;;21.57;;
1082;SDS011;530;51.448;7.238;2023-01-26T09:08:13;40.73;;;20.43;;
1082;SDS011;530;51.448;7.238;2023-01-26T09:10:39;41.60;;;21.63;;
1082;SDS011;530;51.448;7.238;2023-01-26T09:13:05;44.53;;;21.47;;
1082;SDS011;530;51.448;7.238;2023-01-26T09:15:30;41.30;;;21.03;;
1082;SDS011;530;51.448;7.238;2023-01-26T09:17:56;44.40;;;21.63;;
1082;SDS011;530;51.448;7.238;2023-01-26T09:20:22;45.93;;;20.67;;
1082;SDS011;530;51.448;7.238;2023-01-26T09:22:47;46.00;;;21.10;;
1082;SDS011;530;51.448;7.238;2023-01-26T09:25:13;42.90;;;21.00;;
1082;SDS011;530;51.448;7.238;2023-01-26T09:27:39;45.70;;;22.20;;
1082;SDS011;530;51.448;7.238;2023-01-26T09:30:05;45.90;;;22.20;;
1082;SDS011;530;51.448;7.238;2023-01-26T09:32:32;40.17;;;20.50;;
1082;SDS011;530;51.448;7.238;2023-01-26T09:34:58;40.10;;;21.40;;
1082;SDS011;530;51.448;7.238;2023-01-26T09:37:23;45.17;;;22.60;;
1082;SDS011;530;51.448;7.238;2023-01-26T09:39:49;39.80;;;20.53;;
1082;SDS011;530;51.448;7.238;2023-01-26T09:42:25;45.93;;;20.27;;
1082;SDS011;530;51.448;7.238;2023-01-26T09:45:07;42.10;;;21.40;;
1082;SDS011;530;51.448;7.238;2023-01-26T09:50:16;44.10;;;21.90;;
1082;SDS011;530;51.448;7.238;2023-01-26T09:52:55;42.07;;;20.23;;
1082;SDS011;530;51.448;7.238;2023-01-26T09:55:21;46.40;;;21.80;;
1082;SDS011;530;51.448;7.238;2023-01-26T09:58:12;36.00;;;19.47;;
1082;SDS011;530;51.448;7.238;2023-01-26T10:09:15;40.70;;;19.90;;
1082;SDS011;530;51.448;7.238;2023-01-26T10:11:56;41.43;;;20.20;;
1082;SDS011;530;51.448;7.238;2023-01-26T10:14:36;33.50;;;18.03;;
1082;SDS011;530;51.448;7.238;2023-01-26T10:17:17;34.30;;;18.57;;
1082;SDS011;530;51.448;7.238;2023-01-26T10:19:48;34.30;;;17.73;;
1082;SDS011;530;51.448;7.238;2023-01-26T10:22:24;37.10;;;17.40;;
1082;SDS011;530;51.448;7.238;2023-01-26T10:25:00;29.27;;;15.70;;
1082;SDS011;530;51.448;7.238;2023-01-26T10:27:26;32.70;;;17.07;;
1082;SDS011;530;51.448;7.238;2023-01-26T10:29:52;36.87;;;18.73;;
1082;SDS011;530;51.448;7.238;2023-01-26T10:32:18;35.03;;;19.13;;
1082;SDS011;530;51.448;7.238;2023-01-26T10:34:44;30.70;;;16.20;;
1082;SDS011;530;51.448;7.238;2023-01-26T10:37:22;28.17;;;15.83;;
1082;SDS011;530;51.448;7.238;2023-01-26T10:42:23;25.47;;;15.10;;
1082;SDS011;530;51.448;7.238;2023-01-26T10:44:52;29.30;;;16.13;;
1082;SDS011;530;51.448;7.238;2023-01-26T10:47:18;29.93;;;17.20;;
1082;SDS011;530;51.448;7.238;2023-01-26T10:49:46;28.47;;;14.40;;
1082;SDS011;530;51.448;7.238;2023-01-26T10:52:22;25.60;;;14.80;;
1082;SDS011;530;51.448;7.238;2023-01-26T10:55:24;26.67;;;15.17;;
1082;SDS011;530;51.448;7.238;2023-01-26T10:57:45;27.50;;;15.23;;
1082;SDS011;530;51.448;7.238;2023-01-26T11:02:48;27.03;;;14.27;;
1082;SDS011;530;51.448;7.238;2023-01-26T11:05:19;24.50;;;15.27;;
1082;SDS011;530;51.448;7.238;2023-01-26T11:07:46;27.50;;;15.03;;
1082;SDS011;530;51.448;7.238;2023-01-26T11:10:32;26.17;;;14.60;;
1082;SDS011;530;51.448;7.238;2023-01-26T11:15:33;26.73;;;13.43;;
1082;SDS011;530;51.448;7.238;2023-01-26T11:18:04;20.93;;;11.70;;
1082;SDS011;530;51.448;7.238;2023-01-26T11:42:06;24.30;;;14.30;;
1082;SDS011;530;51.448;7.238;2023-01-26T11:44:46;22.30;;;13.97;;
1082;SDS011;530;51.448;7.238;2023-01-26T11:56:00;27.20;;;16.07;;
1082;SDS011;530;51.448;7.238;2023-01-26T12:01:06;18.80;;;13.60;;
1082;SDS011;530;51.448;7.238;2023-01-26T12:06:35;20.20;;;11.80;;
1082;SDS011;530;51.448;7.238;2023-01-26T12:09:06;16.47;;;10.80;;
1082;SDS011;530;51.448;7.238;2023-01-26T12:12:18;17.53;;;10.90;;
1082;SDS011;530;51.448;7.238;2023-01-26T12:14:43;15.90;;;10.40;;
1082;SDS011;530;51.448;7.238;2023-01-26T12:20:01;13.13;;;9.03;;
1082;SDS011;530;51.448;7.238;2023-01-26T12:22:51;13.53;;;10.40;;
1082;SDS011;530;51.448;7.238;2023-01-26T12:25:31;15.90;;;10.57;;
1082;SDS011;530;51.448;7.238;2023-01-26T12:30:54;13.17;;;9.90;;
1082;SDS011;530;51.448;7.238;2023-01-26T12:33:20;12.30;;;9.60;;
1082;SDS011;530;51.448;7.238;2023-01-26T12:35:53;12.27;;;9.63;;
1082;SDS011;530;51.448;7.238;2023-01-26T12:47:04;11.20;;;8.13;;
1082;SDS011;530;51.448;7.238;2023-01-26T12:49:36;14.47;;;9.60;;
1082;SDS011;530;51.448;7.238;2023-01-26T12:52:10;18.73;;;10.07;;
1082;SDS011;530;51.448;7.238;2023-01-26T12:57:30;13.17;;;9.37;;
1082;SDS011;530;51.448;7.238;2023-01-26T13:00:24;12.90;;;9.00;;
1082;SDS011;530;51.448;7.238;2023-01-26T13:03:02;15.20;;;9.73;;
1082;SDS011;530;51.448;7.238;2023-01-26T13:05:55;13.40;;;8.87;;
1082;SDS011;530;51.448;7.238;2023-01-26T13:10:59;14.67;;;9.10;;
1082;SDS011;530;51.448;7.238;2023-01-26T13:18:48;10.83;;;8.70;;
1082;SDS011;530;51.448;7.238;2023-01-26T13:23:53;13.60;;;9.27;;
1082;SDS011;530;51.448;7.238;2023-01-26T13:28:49;10.40;;;8.40;;
1082;SDS011;530;51.448;7.238;2023-01-26T13:31:28;12.27;;;8.00;;
1082;SDS011;530;51.448;7.238;2023-01-26T13:34:01;8.90;;;6.73;;
1082;SDS011;530;51.448;7.238;2023-01-26T13:36:33;10.90;;;7.23;;
1082;SDS011;530;51.448;7.238;2023-01-26T13:39:22;10.37;;;7.30;;
1082;SDS011;530;51.448;7.238;2023-01-26T13:41:50;11.60;;;8.30;;
1082;SDS011;530;51.448;7.238;2023-01-26T13:44:18;10.20;;;7.80;;
1082;SDS011;530;51.448;7.238;2023-01-26T13:46:54;10.43;;;7.80;;
1082;SDS011;530;51.448;7.238;2023-01-26T13:49:38;11.23;;;8.37;;
1082;SDS011;530;51.448;7.238;2023-01-26T13:52:18;12.40;;;8.73;;
1082;SDS011;530;51.448;7.238;2023-01-26T13:54:46;13.37;;;8.70;;
1082;SDS011;530;51.448;7.238;2023-01-26T13:57:23;15.03;;;9.47;;
1082;SDS011;530;51.448;7.238;2023-01-26T13:59:52;14.40;;;10.70;;
1082;SDS011;530;51.448;7.238;2023-01-26T14:04:55;14.43;;;10.27;;
1082;SDS011;530;51.448;7.238;2023-01-26T14:07:44;13.80;;;10.43;;
1082;SDS011;530;51.448;7.238;2023-01-26T14:10:19;21.20;;;12.57;;
1082;SDS011;530;51.448;7.238;2023-01-26T14:12:50;18.00;;;11.67;;
1082;SDS011;530;51.448;7.238;2023-01-26T14:15:24;22.80;;;11.60;;
1082;SDS011;530;51.448;7.238;2023-01-26T14:17:56;18.07;;;12.23;;
1082;SDS011;530;51.448;7.238;2023-01-26T14:20:31;17.60;;;11.30;;
1082;SDS011;530;51.448;7.238;2023-01-26T14:25:34;23.13;;;12.97;;
1082;SDS011;530;51.448;7.238;2023-01-26T14:28:01;22.10;;;14.13;;
1082;SDS011;530;51.448;7.238;2023-01-26T14:30:28;21.17;;;12.20;;
1082;SDS011;530;51.448;7.238;2023-01-26T14:32:57;24.43;;;14.17;;
1082;SDS011;530;51.448;7.238;2023-01-26T14:35:31;22.37;;;15.23;;
1082;SDS011;530;51.448;7.238;2023-01-26T14:38:14;29.50;;;18.73;;
1082;SDS011;530;51.448;7.238;2023-01-26T14:40:45;24.10;;;14.90;;
1082;SDS011;530;51.448;7.238;2023-01-26T14:43:15;28.77;;;16.30;;
1082;SDS011;530;51.448;7.238;2023-01-26T14:45:53;28.47;;;16.17;;
1082;SDS011;530;51.448;7.238;2023-01-26T14:48:21;33.70;;;17.53;;
1082;SDS011;530;51.448;7.238;2023-01-26T14:50:55;27.13;;;17.13;;
1082;SDS011;530;51.448;7.238;2023-01-26T14:53:21;24.10;;;14.03;;
1082;SDS011;530;51.448;7.238;2023-01-26T14:55:49;24.50;;;16.57;;
1082;SDS011;530;51.448;7.238;2023-01-26T14:58:29;23.03;;;14.73;;
1082;SDS011;530;51.448;7.238;2023-01-26T15:00:56;25.00;;;14.47;;
1082;SDS011;530;51.448;7.238;2023-01-26T15:03:28;22.00;;;15.33;;
1082;SDS011;530;51.448;7.238;2023-01-26T15:08:51;27.77;;;15.13;;
1082;SDS011;530;51.448;7.238;2023-01-26T15:11:26;25.70;;;15.87;;
1082;SDS011;530;51.448;7.238;2023-01-26T15:15:02;23.20;;;14.23;;
1082;SDS011;530;51.448;7.238;2023-01-26T15:17:58;21.60;;;13.77;;
1082;SDS011;530;51.448;7.238;2023-01-26T15:20:02;30.83;;;16.67;;
1082;SDS011;530;51.448;7.238;2023-01-26T15:22:35;30.57;;;17.10;;
1082;SDS011;530;51.448;7.238;2023-01-26T15:25:05;30.60;;;16.53;;
1082;SDS011;530;51.448;7.238;2023-01-26T15:27:50;31.40;;;16.93;;
1082;SDS011;530;51.448;7.238;2023-01-26T15:30:44;29.70;;;16.57;;
1082;SDS011;530;51.448;7.238;2023-01-26T15:33:34;32.90;;;17.17;;
1082;SDS011;530;51.448;7.238;2023-01-26T15:36:04;26.37;;;15.97;;
1082;SDS011;530;51.448;7.238;2023-01-26T15:38:31;31.37;;;15.37;;
1082;SDS011;530;51.448;7.238;2023-01-26T15:40:56;30.43;;;16.30;;
1082;SDS011;530;51.448;7.238;2023-01-26T15:43:22;25.47;;;15.43;;
1082;SDS011;530;51.448;7.238;2023-01-26T15:45:52;32.80;;;18.30;;
1082;SDS011;530;51.448;7.238;2023-01-26T15:48:20;28.67;;;15.37;;
1082;SDS011;530;51.448;7.238;2023-01-26T15:50:46;30.60;;;15.90;;
1082;SDS011;530;51.448;7.238;2023-01-26T15:53:13;27.93;;;16.00;;
1082;SDS011;530;51.448;7.238;2023-01-26T15:55:39;29.90;;;15.37;;
1082;SDS011;530;51.448;7.238;2023-01-26T15:58:06;28.83;;;16.53;;
1082;SDS011;530;51.448;7.238;2023-01-26T16:00:32;34.77;;;15.33;;
1082;SDS011;530;51.448;7.238;2023-01-26T16:02:58;35.40;;;15.90;;
1082;SDS011;530;51.448;7.238;2023-01-26T16:05:26;33.57;;;15.47;;
1082;SDS011;530;51.448;7.238;2023-01-26T16:07:52;33.33;;;16.10;;
1082;SDS011;530;51.448;7.238;2023-01-26T16:10:18;44.30;;;23.20;;
1082;SDS011;530;51.448;7.238;2023-01-26T16:12:44;34.00;;;18.97;;
1082;SDS011;530;51.448;7.238;2023-01-26T16:15:19;39.43;;;20.73;;
1082;SDS011;530;51.448;7.238;2023-01-26T16:17:51;29.10;;;16.77;;
1082;SDS011;530;51.448;7.238;2023-01-26T16:20:17;33.30;;;15.80;;
1082;SDS011;530;51.448;7.238;2023-01-26T16:22:43;36.73;;;19.97;;
1082;SDS011;530;51.448;7.238;2023-01-26T16:25:30;41.20;;;18.03;;
1082;SDS011;530;51.448;7.238;2023-01-26T16:27:58;34.90;;;19.37;;
1082;SDS011;530;51.448;7.238;2023-01-26T16:30:24;38.13;;;18.13;;
1082;SDS011;530;51.448;7.238;2023-01-26T16:32:50;33.07;;;17.07;;
1082;SDS011;530;51.448;7.238;2023-01-26T16:35:18;43.67;;;19.53;;
1082;SDS011;530;51.448;7.238;2023-01-26T16:37:45;38.70;;;17.60;;
1082;SDS011;530;51.448;7.238;2023-01-26T16:40:12;41.40;;;18.83;;
1082;SDS011;530;51.448;7.238;2023-01-26T16:42:43;35.93;;;20.33;;
1082;SDS011;530;51.448;7.238;2023-01-26T16:45:16;36.03;;;17.07;;
1082;SDS011;530;51.448;7.238;2023-01-26T16:47:44;44.63;;;18.93;;
1082;SDS011;530;51.448;7.238;2023-01-26T16:50:14;41.23;;;21.10;;
1082;SDS011;530;51.448;7.238;2023-01-26T16:52:40;49.70;;;20.77;;
1082;SDS011;530;51.448;7.238;2023-01-26T16:55:06;42.17;;;20.80;;
1082;SDS011;530;51.448;7.238;2023-01-26T16:57:36;44.77;;;21.43;;
1082;SDS011;530;51.448;7.238;2023-01-26T17:00:04;41.90;;;20.53;;
1082;SDS011;530;51.448;7.238;2023-01-26T17:02:32;35.53;;;20.77;;
1082;SDS011;530;51.448;7.238;2023-01-26T17:04:59;45.17;;;19.93;;